Amity, Indiana
Current Conditions -  °F | °C
As of 8:15 PM on Thursday 27 Nov 2014 (Local Time) from K1II Reporting Station
Overcast Overcast  
Wind Chill: 25°   Ceiling: 3000
Heat Index: 30°   Visibility: 10mi
Dew Point: 21°   Wind: 5mph
Humidity: 69%   Direction: 280°W
Pressure: 30.42"   Gusts: NA
Location:  39.4841°N, 86.0843°W
Report Text: K1II 280115Z AUTO 28004KT 10SM BKN030 BKN040 OVC046 M01/M06 A3042 RMK AO2
Loading
Personal Weather Stations






























Interactive Weather Map New forecast layout! Learn more

10-Day Weather Forecast

Advertisements
Track Severe Weather on mobile